sensor_id;sensor_type;location;lat;lon;timestamp;P1;durP1;ratioP1;P2;durP2;ratioP2
1977;SDS011;989;53.016;8.346;2023-02-18T00:00:13;7.20;;;1.83;;
1977;SDS011;989;53.016;8.346;2023-02-18T00:02:41;17.38;;;2.47;;
1977;SDS011;989;53.016;8.346;2023-02-18T00:05:08;11.73;;;2.30;;
1977;SDS011;989;53.016;8.346;2023-02-18T00:07:35;7.75;;;2.05;;
1977;SDS011;989;53.016;8.346;2023-02-18T00:10:02;10.45;;;1.88;;
1977;SDS011;989;53.016;8.346;2023-02-18T00:12:30;15.95;;;2.70;;
1977;SDS011;989;53.016;8.346;2023-02-18T00:14:56;19.90;;;2.75;;
1977;SDS011;989;53.016;8.346;2023-02-18T00:17:22;9.77;;;2.97;;
1977;SDS011;989;53.016;8.346;2023-02-18T00:19:49;22.63;;;2.30;;
1977;SDS011;989;53.016;8.346;2023-02-18T00:22:15;7.22;;;2.20;;
1977;SDS011;989;53.016;8.346;2023-02-18T00:24:41;5.10;;;1.30;;
1977;SDS011;989;53.016;8.346;2023-02-18T00:27:07;20.38;;;2.85;;
1977;SDS011;989;53.016;8.346;2023-02-18T00:29:33;17.67;;;2.15;;
1977;SDS011;989;53.016;8.346;2023-02-18T00:31:59;8.30;;;1.85;;
1977;SDS011;989;53.016;8.346;2023-02-18T00:34:25;14.07;;;2.58;;
1977;SDS011;989;53.016;8.346;2023-02-18T00:36:51;13.32;;;2.50;;
1977;SDS011;989;53.016;8.346;2023-02-18T00:39:17;9.98;;;1.80;;
1977;SDS011;989;53.016;8.346;2023-02-18T00:41:43;6.50;;;2.30;;
1977;SDS011;989;53.016;8.346;2023-02-18T00:44:10;14.48;;;3.03;;
1977;SDS011;989;53.016;8.346;2023-02-18T00:46:36;10.15;;;2.20;;
1977;SDS011;989;53.016;8.346;2023-02-18T00:49:03;15.15;;;2.42;;
1977;SDS011;989;53.016;8.346;2023-02-18T00:51:30;4.17;;;1.50;;
1977;SDS011;989;53.016;8.346;2023-02-18T00:53:56;15.23;;;1.90;;
1977;SDS011;989;53.016;8.346;2023-02-18T00:56:22;14.45;;;2.65;;
1977;SDS011;989;53.016;8.346;2023-02-18T00:58:48;14.02;;;2.15;;
1977;SDS011;989;53.016;8.346;2023-02-18T01:01:14;6.65;;;1.95;;
1977;SDS011;989;53.016;8.346;2023-02-18T01:03:41;14.45;;;2.10;;
1977;SDS011;989;53.016;8.346;2023-02-18T01:06:07;16.50;;;2.60;;
1977;SDS011;989;53.016;8.346;2023-02-18T01:08:34;12.75;;;2.10;;
1977;SDS011;989;53.016;8.346;2023-02-18T01:11:02;4.07;;;1.70;;
1977;SDS011;989;53.016;8.346;2023-02-18T01:13:28;14.60;;;2.85;;
1977;SDS011;989;53.016;8.346;2023-02-18T01:15:55;10.20;;;2.33;;
1977;SDS011;989;53.016;8.346;2023-02-18T01:18:21;11.65;;;2.45;;
1977;SDS011;989;53.016;8.346;2023-02-18T01:20:48;12.98;;;2.85;;
1977;SDS011;989;53.016;8.346;2023-02-18T01:23:15;14.15;;;2.05;;
1977;SDS011;989;53.016;8.346;2023-02-18T01:25:41;23.05;;;3.30;;
1977;SDS011;989;53.016;8.346;2023-02-18T01:28:07;17.63;;;2.83;;
1977;SDS011;989;53.016;8.346;2023-02-18T01:30:35;10.48;;;2.22;;
1977;SDS011;989;53.016;8.346;2023-02-18T01:33:01;12.63;;;2.97;;
1977;SDS011;989;53.016;8.346;2023-02-18T01:35:27;11.13;;;1.65;;
1977;SDS011;989;53.016;8.346;2023-02-18T01:37:54;12.60;;;2.45;;
1977;SDS011;989;53.016;8.346;2023-02-18T01:40:22;10.65;;;2.25;;
1977;SDS011;989;53.016;8.346;2023-02-18T01:42:50;11.80;;;2.90;;
1977;SDS011;989;53.016;8.346;2023-02-18T01:50:56;8.63;;;1.10;;
1977;SDS011;989;53.016;8.346;2023-02-18T01:53:32;13.77;;;3.35;;
1977;SDS011;989;53.016;8.346;2023-02-18T01:56:05;15.00;;;2.30;;
1977;SDS011;989;53.016;8.346;2023-02-18T01:58:35;14.27;;;1.95;;
1977;SDS011;989;53.016;8.346;2023-02-18T02:01:01;8.45;;;2.05;;
1977;SDS011;989;53.016;8.346;2023-02-18T02:03:28;13.77;;;3.55;;
1977;SDS011;989;53.016;8.346;2023-02-18T02:05:54;7.43;;;2.40;;
1977;SDS011;989;53.016;8.346;2023-02-18T02:08:20;14.68;;;2.95;;
1977;SDS011;989;53.016;8.346;2023-02-18T02:16:25;5.80;;;1.75;;
1977;SDS011;989;53.016;8.346;2023-02-18T02:19:03;8.27;;;3.00;;
1977;SDS011;989;53.016;8.346;2023-02-18T02:22:01;9.52;;;2.35;;
1977;SDS011;989;53.016;8.346;2023-02-18T02:30:51;9.45;;;2.45;;
1977;SDS011;989;53.016;8.346;2023-02-18T02:33:49;13.88;;;3.00;;
1977;SDS011;989;53.016;8.346;2023-02-18T02:36:23;5.13;;;1.73;;
1977;SDS011;989;53.016;8.346;2023-02-18T02:38:55;15.07;;;2.30;;
1977;SDS011;989;53.016;8.346;2023-02-18T02:41:31;14.20;;;2.20;;
1977;SDS011;989;53.016;8.346;2023-02-18T02:44:10;9.93;;;2.67;;
1977;SDS011;989;53.016;8.346;2023-02-18T02:46:45;22.33;;;2.75;;
1977;SDS011;989;53.016;8.346;2023-02-18T02:52:04;13.63;;;2.20;;
1977;SDS011;989;53.016;8.346;2023-02-18T02:54:40;22.55;;;2.47;;
1977;SDS011;989;53.016;8.346;2023-02-18T02:57:08;13.88;;;1.63;;
1977;SDS011;989;53.016;8.346;2023-02-18T02:59:38;11.13;;;1.92;;
1977;SDS011;989;53.016;8.346;2023-02-18T03:05:14;13.50;;;2.70;;
1977;SDS011;989;53.016;8.346;2023-02-18T03:11:02;6.03;;;1.60;;
1977;SDS011;989;53.016;8.346;2023-02-18T03:16:32;14.77;;;2.88;;
1977;SDS011;989;53.016;8.346;2023-02-18T03:19:26;16.80;;;2.97;;
1977;SDS011;989;53.016;8.346;2023-02-18T03:22:15;4.43;;;1.25;;
1977;SDS011;989;53.016;8.346;2023-02-18T03:24:49;7.28;;;1.85;;
1977;SDS011;989;53.016;8.346;2023-02-18T03:29:47;11.43;;;2.10;;
1977;SDS011;989;53.016;8.346;2023-02-18T03:32:29;7.22;;;2.40;;
1977;SDS011;989;53.016;8.346;2023-02-18T03:34:59;13.10;;;2.33;;
1977;SDS011;989;53.016;8.346;2023-02-18T03:37:37;9.68;;;2.35;;
1977;SDS011;989;53.016;8.346;2023-02-18T03:40:06;9.90;;;2.10;;
1977;SDS011;989;53.016;8.346;2023-02-18T03:42:34;5.57;;;1.75;;
1977;SDS011;989;53.016;8.346;2023-02-18T03:45:00;11.70;;;2.75;;
1977;SDS011;989;53.016;8.346;2023-02-18T03:47:27;22.73;;;3.05;;
1977;SDS011;989;53.016;8.346;2023-02-18T03:49:53;19.08;;;2.38;;
1977;SDS011;989;53.016;8.346;2023-02-18T03:52:19;20.02;;;2.10;;
1977;SDS011;989;53.016;8.346;2023-02-18T03:54:45;10.68;;;1.90;;
1977;SDS011;989;53.016;8.346;2023-02-18T03:57:11;17.17;;;2.63;;
1977;SDS011;989;53.016;8.346;2023-02-18T03:59:37;25.05;;;3.40;;
1977;SDS011;989;53.016;8.346;2023-02-18T04:02:03;10.80;;;1.73;;
1977;SDS011;989;53.016;8.346;2023-02-18T04:04:29;11.52;;;1.88;;
1977;SDS011;989;53.016;8.346;2023-02-18T04:06:55;14.70;;;2.28;;
1977;SDS011;989;53.016;8.346;2023-02-18T04:09:21;8.93;;;2.00;;
1977;SDS011;989;53.016;8.346;2023-02-18T04:11:47;9.37;;;2.13;;
1977;SDS011;989;53.016;8.346;2023-02-18T04:14:13;13.18;;;3.65;;
1977;SDS011;989;53.016;8.346;2023-02-18T04:16:40;6.07;;;1.77;;
1977;SDS011;989;53.016;8.346;2023-02-18T04:19:06;13.25;;;1.98;;
1977;SDS011;989;53.016;8.346;2023-02-18T04:21:32;8.68;;;1.92;;
1977;SDS011;989;53.016;8.346;2023-02-18T04:23:59;5.95;;;1.73;;
1977;SDS011;989;53.016;8.346;2023-02-18T04:26:25;15.30;;;2.00;;
1977;SDS011;989;53.016;8.346;2023-02-18T04:28:51;9.13;;;1.75;;
1977;SDS011;989;53.016;8.346;2023-02-18T04:31:17;12.80;;;1.65;;
1977;SDS011;989;53.016;8.346;2023-02-18T04:33:43;15.95;;;1.95;;
1977;SDS011;989;53.016;8.346;2023-02-18T04:36:10;7.47;;;2.10;;
1977;SDS011;989;53.016;8.346;2023-02-18T04:38:36;14.25;;;2.42;;
1977;SDS011;989;53.016;8.346;2023-02-18T04:41:02;14.52;;;2.78;;
1977;SDS011;989;53.016;8.346;2023-02-18T04:43:28;8.85;;;2.58;;
1977;SDS011;989;53.016;8.346;2023-02-18T04:45:54;9.10;;;2.33;;
1977;SDS011;989;53.016;8.346;2023-02-18T04:48:20;9.88;;;3.53;;
1977;SDS011;989;53.016;8.346;2023-02-18T04:50:46;19.80;;;2.67;;
1977;SDS011;989;53.016;8.346;2023-02-18T04:53:13;16.30;;;3.88;;
1977;SDS011;989;53.016;8.346;2023-02-18T04:55:39;16.50;;;3.38;;
1977;SDS011;989;53.016;8.346;2023-02-18T04:58:05;18.20;;;3.55;;
1977;SDS011;989;53.016;8.346;2023-02-18T05:00:31;11.45;;;3.70;;
1977;SDS011;989;53.016;8.346;2023-02-18T05:02:57;19.75;;;4.28;;
1977;SDS011;989;53.016;8.346;2023-02-18T05:05:23;14.93;;;3.72;;
1977;SDS011;989;53.016;8.346;2023-02-18T05:07:49;16.63;;;3.53;;
1977;SDS011;989;53.016;8.346;2023-02-18T05:10:15;11.93;;;3.03;;
1977;SDS011;989;53.016;8.346;2023-02-18T05:12:42;12.95;;;3.67;;
1977;SDS011;989;53.016;8.346;2023-02-18T05:15:08;12.98;;;3.72;;
1977;SDS011;989;53.016;8.346;2023-02-18T05:17:35;9.88;;;3.38;;
1977;SDS011;989;53.016;8.346;2023-02-18T05:20:01;10.48;;;3.92;;
1977;SDS011;989;53.016;8.346;2023-02-18T05:22:27;6.20;;;3.53;;
1977;SDS011;989;53.016;8.346;2023-02-18T05:24:53;12.68;;;4.40;;
1977;SDS011;989;53.016;8.346;2023-02-18T05:27:19;13.90;;;4.07;;
1977;SDS011;989;53.016;8.346;2023-02-18T05:29:45;11.95;;;4.78;;
1977;SDS011;989;53.016;8.346;2023-02-18T05:32:11;10.65;;;3.25;;
1977;SDS011;989;53.016;8.346;2023-02-18T05:34:38;14.73;;;4.05;;
1977;SDS011;989;53.016;8.346;2023-02-18T05:37:04;26.33;;;5.00;;
1977;SDS011;989;53.016;8.346;2023-02-18T05:39:30;10.10;;;3.47;;
1977;SDS011;989;53.016;8.346;2023-02-18T05:41:56;11.00;;;4.05;;
1977;SDS011;989;53.016;8.346;2023-02-18T05:44:22;19.77;;;4.80;;
1977;SDS011;989;53.016;8.346;2023-02-18T05:46:54;21.73;;;4.95;;
1977;SDS011;989;53.016;8.346;2023-02-18T05:49:24;12.73;;;4.93;;
1977;SDS011;989;53.016;8.346;2023-02-18T05:51:51;19.77;;;5.27;;
1977;SDS011;989;53.016;8.346;2023-02-18T05:54:17;16.73;;;5.68;;
1977;SDS011;989;53.016;8.346;2023-02-18T05:56:43;15.82;;;6.40;;
1977;SDS011;989;53.016;8.346;2023-02-18T05:59:09;15.38;;;5.70;;
1977;SDS011;989;53.016;8.346;2023-02-18T06:01:35;25.90;;;6.18;;
1977;SDS011;989;53.016;8.346;2023-02-18T06:04:01;18.13;;;6.53;;
1977;SDS011;989;53.016;8.346;2023-02-18T06:06:28;12.05;;;6.40;;
1977;SDS011;989;53.016;8.346;2023-02-18T06:08:54;25.63;;;9.45;;
1977;SDS011;989;53.016;8.346;2023-02-18T06:11:20;24.10;;;10.30;;
1977;SDS011;989;53.016;8.346;2023-02-18T06:13:46;26.55;;;10.07;;
1977;SDS011;989;53.016;8.346;2023-02-18T06:16:12;28.48;;;11.93;;
1977;SDS011;989;53.016;8.346;2023-02-18T06:18:38;25.33;;;11.52;;
1977;SDS011;989;53.016;8.346;2023-02-18T06:21:04;26.90;;;12.80;;
1977;SDS011;989;53.016;8.346;2023-02-18T06:23:30;38.30;;;16.67;;
1977;SDS011;989;53.016;8.346;2023-02-18T06:25:56;43.40;;;18.30;;
1977;SDS011;989;53.016;8.346;2023-02-18T06:28:22;56.70;;;21.10;;
1977;SDS011;989;53.016;8.346;2023-02-18T06:30:48;56.92;;;21.58;;
1977;SDS011;989;53.016;8.346;2023-02-18T06:33:15;68.25;;;21.83;;
1977;SDS011;989;53.016;8.346;2023-02-18T06:35:41;55.85;;;22.17;;
1977;SDS011;989;53.016;8.346;2023-02-18T06:38:16;56.53;;;23.42;;
1977;SDS011;989;53.016;8.346;2023-02-18T06:40:42;64.57;;;24.10;;
1977;SDS011;989;53.016;8.346;2023-02-18T06:43:09;55.80;;;24.80;;
1977;SDS011;989;53.016;8.346;2023-02-18T06:45:37;66.20;;;25.80;;
1977;SDS011;989;53.016;8.346;2023-02-18T06:48:03;64.65;;;25.17;;
1977;SDS011;989;53.016;8.346;2023-02-18T06:50:30;65.68;;;26.48;;
1977;SDS011;989;53.016;8.346;2023-02-18T06:52:56;61.17;;;25.70;;
1977;SDS011;989;53.016;8.346;2023-02-18T06:55:23;65.83;;;25.00;;
1977;SDS011;989;53.016;8.346;2023-02-18T06:57:49;61.07;;;25.23;;
1977;SDS011;989;53.016;8.346;2023-02-18T07:00:16;56.77;;;22.43;;
1977;SDS011;989;53.016;8.346;2023-02-18T07:02:42;51.75;;;23.63;;
1977;SDS011;989;53.016;8.346;2023-02-18T07:05:08;55.03;;;23.17;;
1977;SDS011;989;53.016;8.346;2023-02-18T07:07:34;59.20;;;22.40;;
1977;SDS011;989;53.016;8.346;2023-02-18T07:10:00;47.33;;;21.52;;
1977;SDS011;989;53.016;8.346;2023-02-18T07:12:27;40.08;;;19.45;;
1977;SDS011;989;53.016;8.346;2023-02-18T07:14:53;40.43;;;18.43;;
1977;SDS011;989;53.016;8.346;2023-02-18T07:17:19;52.33;;;18.97;;
1977;SDS011;989;53.016;8.346;2023-02-18T07:19:45;43.00;;;18.63;;
1977;SDS011;989;53.016;8.346;2023-02-18T07:22:11;47.90;;;20.20;;
1977;SDS011;989;53.016;8.346;2023-02-18T07:24:38;41.63;;;20.37;;
1977;SDS011;989;53.016;8.346;2023-02-18T07:27:04;41.92;;;20.25;;
1977;SDS011;989;53.016;8.346;2023-02-18T07:29:30;59.40;;;21.50;;
1977;SDS011;989;53.016;8.346;2023-02-18T07:31:56;50.87;;;18.83;;
1977;SDS011;989;53.016;8.346;2023-02-18T07:34:23;43.53;;;16.50;;
1977;SDS011;989;53.016;8.346;2023-02-18T07:36:53;44.13;;;17.10;;
1977;SDS011;989;53.016;8.346;2023-02-18T07:39:19;43.53;;;17.63;;
1977;SDS011;989;53.016;8.346;2023-02-18T07:41:46;40.67;;;15.80;;
1977;SDS011;989;53.016;8.346;2023-02-18T07:44:12;46.27;;;16.43;;
1977;SDS011;989;53.016;8.346;2023-02-18T07:46:39;41.10;;;15.37;;
1977;SDS011;989;53.016;8.346;2023-02-18T07:49:05;38.13;;;14.07;;
1977;SDS011;989;53.016;8.346;2023-02-18T07:51:32;24.97;;;10.60;;
1977;SDS011;989;53.016;8.346;2023-02-18T07:53:58;29.47;;;10.67;;
1977;SDS011;989;53.016;8.346;2023-02-18T07:56:24;21.43;;;8.30;;
1977;SDS011;989;53.016;8.346;2023-02-18T07:58:51;25.23;;;10.30;;
1977;SDS011;989;53.016;8.346;2023-02-18T08:01:17;16.83;;;6.40;;
1977;SDS011;989;53.016;8.346;2023-02-18T08:03:43;20.30;;;8.07;;
1977;SDS011;989;53.016;8.346;2023-02-18T08:06:17;14.03;;;5.43;;
1977;SDS011;989;53.016;8.346;2023-02-18T08:08:45;12.80;;;6.30;;
1977;SDS011;989;53.016;8.346;2023-02-18T08:11:11;11.37;;;5.90;;
1977;SDS011;989;53.016;8.346;2023-02-18T08:13:37;17.13;;;6.40;;
1977;SDS011;989;53.016;8.346;2023-02-18T08:16:04;9.77;;;4.80;;
1977;SDS011;989;53.016;8.346;2023-02-18T08:18:30;13.00;;;5.53;;
1977;SDS011;989;53.016;8.346;2023-02-18T08:20:57;13.33;;;5.30;;
1977;SDS011;989;53.016;8.346;2023-02-18T08:23:23;7.07;;;3.90;;
1977;SDS011;989;53.016;8.346;2023-02-18T08:25:50;9.07;;;3.80;;
1977;SDS011;989;53.016;8.346;2023-02-18T08:28:18;9.03;;;4.00;;
1977;SDS011;989;53.016;8.346;2023-02-18T08:30:45;8.47;;;4.63;;
1977;SDS011;989;53.016;8.346;2023-02-18T08:33:12;7.17;;;3.67;;
1977;SDS011;989;53.016;8.346;2023-02-18T08:35:39;9.40;;;4.30;;
1977;SDS011;989;53.016;8.346;2023-02-18T08:38:05;9.20;;;4.53;;
1977;SDS011;989;53.016;8.346;2023-02-18T08:40:31;17.17;;;3.40;;
1977;SDS011;989;53.016;8.346;2023-02-18T08:42:57;5.93;;;3.37;;
1977;SDS011;989;53.016;8.346;2023-02-18T08:45:23;5.20;;;2.37;;
1977;SDS011;989;53.016;8.346;2023-02-18T08:47:49;8.10;;;4.13;;
1977;SDS011;989;53.016;8.346;2023-02-18T08:50:16;6.50;;;2.87;;
1977;SDS011;989;53.016;8.346;2023-02-18T08:52:44;5.70;;;2.13;;
1977;SDS011;989;53.016;8.346;2023-02-18T08:55:10;5.40;;;3.40;;
1977;SDS011;989;53.016;8.346;2023-02-18T08:57:37;4.57;;;2.60;;
1977;SDS011;989;53.016;8.346;2023-02-18T09:00:03;6.60;;;2.67;;
1977;SDS011;989;53.016;8.346;2023-02-18T09:02:30;7.57;;;3.20;;
1977;SDS011;989;53.016;8.346;2023-02-18T09:04:56;7.17;;;3.10;;
1977;SDS011;989;53.016;8.346;2023-02-18T09:07:22;4.43;;;2.50;;
1977;SDS011;989;53.016;8.346;2023-02-18T09:09:48;8.07;;;3.60;;
1977;SDS011;989;53.016;8.346;2023-02-18T09:12:15;5.33;;;3.00;;
1977;SDS011;989;53.016;8.346;2023-02-18T09:14:41;5.03;;;1.83;;
1977;SDS011;989;53.016;8.346;2023-02-18T09:17:07;5.23;;;3.60;;
1977;SDS011;989;53.016;8.346;2023-02-18T09:19:33;6.03;;;2.60;;
1977;SDS011;989;53.016;8.346;2023-02-18T09:21:59;5.67;;;3.77;;
1977;SDS011;989;53.016;8.346;2023-02-18T09:24:25;3.73;;;2.57;;
1977;SDS011;989;53.016;8.346;2023-02-18T09:26:51;3.10;;;2.10;;
1977;SDS011;989;53.016;8.346;2023-02-18T09:29:18;2.37;;;1.77;;
1977;SDS011;989;53.016;8.346;2023-02-18T09:31:44;4.80;;;2.00;;
1977;SDS011;989;53.016;8.346;2023-02-18T09:34:10;6.50;;;4.03;;
1977;SDS011;989;53.016;8.346;2023-02-18T09:36:37;4.07;;;2.53;;
1977;SDS011;989;53.016;8.346;2023-02-18T09:39:04;6.53;;;3.50;;
1977;SDS011;989;53.016;8.346;2023-02-18T09:41:37;8.57;;;3.80;;
1977;SDS011;989;53.016;8.346;2023-02-18T09:44:10;2.60;;;1.87;;
1977;SDS011;989;53.016;8.346;2023-02-18T09:46:46;0.90;;;0.40;;
1977;SDS011;989;53.016;8.346;2023-02-18T09:50:07;1.23;;;1.13;;
1977;SDS011;989;53.016;8.346;2023-02-18T09:52:32;0.90;;;0.40;;
1977;SDS011;989;53.016;8.346;2023-02-18T09:55:12;0.90;;;0.40;;
1977;SDS011;989;53.016;8.346;2023-02-18T09:57:48;0.90;;;0.40;;
1977;SDS011;989;53.016;8.346;2023-02-18T10:02:49;0.90;;;0.40;;
1977;SDS011;989;53.016;8.346;2023-02-18T10:05:20;0.90;;;0.40;;
1977;SDS011;989;53.016;8.346;2023-02-18T10:07:47;0.90;;;0.40;;
1977;SDS011;989;53.016;8.346;2023-02-18T10:11:01;0.90;;;0.40;;
1977;SDS011;989;53.016;8.346;2023-02-18T10:13:03;0.90;;;0.40;;
1977;SDS011;989;53.016;8.346;2023-02-18T10:15:31;0.90;;;0.40;;
1977;SDS011;989;53.016;8.346;2023-02-18T10:17:58;0.90;;;0.40;;
1977;SDS011;989;53.016;8.346;2023-02-18T10:20:26;0.90;;;0.40;;
1977;SDS011;989;53.016;8.346;2023-02-18T10:22:53;0.90;;;0.40;;
1977;SDS011;989;53.016;8.346;2023-02-18T10:25:22;0.90;;;0.40;;
1977;SDS011;989;53.016;8.346;2023-02-18T10:27:49;0.90;;;0.40;;
1977;SDS011;989;53.016;8.346;2023-02-18T10:30:26;0.90;;;0.50;;
1977;SDS011;989;53.016;8.346;2023-02-18T10:33:00;0.90;;;0.40;;
1977;SDS011;989;53.016;8.346;2023-02-18T10:35:38;0.90;;;0.40;;
1977;SDS011;989;53.016;8.346;2023-02-18T10:41:15;0.90;;;0.40;;
1977;SDS011;989;53.016;8.346;2023-02-18T10:43:50;0.90;;;0.40;;
1977;SDS011;989;53.016;8.346;2023-02-18T10:46:47;0.90;;;0.40;;
1977;SDS011;989;53.016;8.346;2023-02-18T10:52:05;0.90;;;0.40;;
1977;SDS011;989;53.016;8.346;2023-02-18T10:54:50;0.90;;;0.40;;
1977;SDS011;989;53.016;8.346;2023-02-18T10:57:20;0.90;;;0.40;;
1977;SDS011;989;53.016;8.346;2023-02-18T10:59:55;0.90;;;0.40;;
1977;SDS011;989;53.016;8.346;2023-02-18T11:02:25;0.90;;;0.40;;
1977;SDS011;989;53.016;8.346;2023-02-18T11:04:54;0.90;;;0.40;;
1977;SDS011;989;53.016;8.346;2023-02-18T11:07:29;0.90;;;0.40;;
1977;SDS011;989;53.016;8.346;2023-02-18T11:09:57;0.90;;;0.40;;
1977;SDS011;989;53.016;8.346;2023-02-18T11:12:42;0.90;;;0.40;;
1977;SDS011;989;53.016;8.346;2023-02-18T11:17:43;0.90;;;0.40;;
1977;SDS011;989;53.016;8.346;2023-02-18T11:22:50;0.90;;;0.40;;
1977;SDS011;989;53.016;8.346;2023-02-18T11:25:22;0.90;;;0.40;;
1977;SDS011;989;53.016;8.346;2023-02-18T11:27:51;0.90;;;0.40;;
1977;SDS011;989;53.016;8.346;2023-02-18T11:33:02;0.90;;;0.40;;
1977;SDS011;989;53.016;8.346;2023-02-18T11:35:31;0.90;;;0.40;;
1977;SDS011;989;53.016;8.346;2023-02-18T11:37:58;0.90;;;0.40;;
1977;SDS011;989;53.016;8.346;2023-02-18T11:40:29;0.90;;;0.40;;
1977;SDS011;989;53.016;8.346;2023-02-18T11:43:11;0.90;;;0.40;;
1977;SDS011;989;53.016;8.346;2023-02-18T11:45:38;0.90;;;0.40;;
1977;SDS011;989;53.016;8.346;2023-02-18T11:48:16;0.90;;;0.40;;
1977;SDS011;989;53.016;8.346;2023-02-18T11:50:44;0.90;;;0.40;;
1977;SDS011;989;53.016;8.346;2023-02-18T11:53:27;0.90;;;0.40;;
1977;SDS011;989;53.016;8.346;2023-02-18T11:55:59;0.90;;;0.40;;
1977;SDS011;989;53.016;8.346;2023-02-18T11:58:31;0.90;;;0.40;;
1977;SDS011;989;53.016;8.346;2023-02-18T12:01:02;0.90;;;0.40;;
1977;SDS011;989;53.016;8.346;2023-02-18T12:06:17;0.90;;;0.40;;
1977;SDS011;989;53.016;8.346;2023-02-18T12:09:24;0.90;;;0.40;;
1977;SDS011;989;53.016;8.346;2023-02-18T12:12:15;0.90;;;0.40;;
1977;SDS011;989;53.016;8.346;2023-02-18T12:14:55;0.90;;;0.40;;
1977;SDS011;989;53.016;8.346;2023-02-18T12:17:28;0.90;;;0.40;;
1977;SDS011;989;53.016;8.346;2023-02-18T12:25:49;0.90;;;0.40;;
1977;SDS011;989;53.016;8.346;2023-02-18T12:28:37;0.90;;;0.40;;
1977;SDS011;989;53.016;8.346;2023-02-18T12:37:12;0.90;;;0.40;;
1977;SDS011;989;53.016;8.346;2023-02-18T12:40:18;0.90;;;0.40;;
1977;SDS011;989;53.016;8.346;2023-02-18T12:46:12;0.90;;;0.40;;
1977;SDS011;989;53.016;8.346;2023-02-18T12:51:35;0.90;;;0.40;;
1977;SDS011;989;53.016;8.346;2023-02-18T13:14:10;0.90;;;0.40;;
1977;SDS011;989;53.016;8.346;2023-02-18T13:16:40;0.90;;;0.40;;
1977;SDS011;989;53.016;8.346;2023-02-18T13:21:40;0.90;;;0.40;;
1977;SDS011;989;53.016;8.346;2023-02-18T13:24:12;0.90;;;0.40;;
1977;SDS011;989;53.016;8.346;2023-02-18T13:26:41;0.90;;;0.40;;
1977;SDS011;989;53.016;8.346;2023-02-18T13:29:28;0.90;;;0.40;;
1977;SDS011;989;53.016;8.346;2023-02-18T13:34:45;0.90;;;0.40;;
1977;SDS011;989;53.016;8.346;2023-02-18T13:37:19;0.90;;;0.40;;
1977;SDS011;989;53.016;8.346;2023-02-18T13:39:57;0.90;;;0.40;;
1977;SDS011;989;53.016;8.346;2023-02-18T13:47:35;0.93;;;0.40;;
1977;SDS011;989;53.016;8.346;2023-02-18T13:52:47;1.00;;;0.40;;
1977;SDS011;989;53.016;8.346;2023-02-18T13:55:18;1.00;;;0.40;;
1977;SDS011;989;53.016;8.346;2023-02-18T13:57:49;1.00;;;0.40;;
1977;SDS011;989;53.016;8.346;2023-02-18T14:00:20;1.00;;;0.40;;
1977;SDS011;989;53.016;8.346;2023-02-18T14:02:56;1.00;;;0.40;;
1977;SDS011;989;53.016;8.346;2023-02-18T14:05:24;1.00;;;0.40;;
1977;SDS011;989;53.016;8.346;2023-02-18T14:08:11;1.00;;;0.40;;
1977;SDS011;989;53.016;8.346;2023-02-18T14:10:38;1.00;;;0.40;;
1977;SDS011;989;53.016;8.346;2023-02-18T14:16:02;1.00;;;0.40;;
1977;SDS011;989;53.016;8.346;2023-02-18T14:19:24;1.00;;;0.40;;
1977;SDS011;989;53.016;8.346;2023-02-18T14:21:19;1.00;;;0.40;;
1977;SDS011;989;53.016;8.346;2023-02-18T14:26:17;1.10;;;0.43;;
1977;SDS011;989;53.016;8.346;2023-02-18T14:29:00;1.03;;;0.40;;
1977;SDS011;989;53.016;8.346;2023-02-18T14:31:42;1.10;;;0.40;;
1977;SDS011;989;53.016;8.346;2023-02-18T14:45:56;1.00;;;0.50;;
1977;SDS011;989;53.016;8.346;2023-02-18T14:51:15;1.00;;;0.40;;
1977;SDS011;989;53.016;8.346;2023-02-18T14:53:44;1.00;;;0.40;;
1977;SDS011;989;53.016;8.346;2023-02-18T14:56:12;1.00;;;0.40;;
1977;SDS011;989;53.016;8.346;2023-02-18T14:58:41;1.00;;;0.40;;
1977;SDS011;989;53.016;8.346;2023-02-18T15:01:18;1.03;;;0.40;;
1977;SDS011;989;53.016;8.346;2023-02-18T15:03:47;1.00;;;0.40;;
1977;SDS011;989;53.016;8.346;2023-02-18T15:09:20;1.10;;;0.40;;
1977;SDS011;989;53.016;8.346;2023-02-18T15:14:19;1.10;;;0.40;;
1977;SDS011;989;53.016;8.346;2023-02-18T15:16:49;1.07;;;0.40;;
1977;SDS011;989;53.016;8.346;2023-02-18T15:19:20;1.03;;;0.40;;
1977;SDS011;989;53.016;8.346;2023-02-18T15:21:49;1.10;;;0.40;;
1977;SDS011;989;53.016;8.346;2023-02-18T15:26:51;1.10;;;0.40;;
1977;SDS011;989;53.016;8.346;2023-02-18T15:29:19;1.10;;;0.40;;
1977;SDS011;989;53.016;8.346;2023-02-18T15:31:47;1.10;;;0.40;;
1977;SDS011;989;53.016;8.346;2023-02-18T15:34:28;1.10;;;0.40;;
1977;SDS011;989;53.016;8.346;2023-02-18T15:36:59;1.10;;;0.40;;
1977;SDS011;989;53.016;8.346;2023-02-18T15:39:27;1.03;;;0.40;;
1977;SDS011;989;53.016;8.346;2023-02-18T15:41:54;1.10;;;0.57;;
1977;SDS011;989;53.016;8.346;2023-02-18T15:44:24;1.07;;;0.40;;
1977;SDS011;989;53.016;8.346;2023-02-18T15:46:51;1.10;;;0.40;;
1977;SDS011;989;53.016;8.346;2023-02-18T15:49:19;1.10;;;0.40;;
1977;SDS011;989;53.016;8.346;2023-02-18T15:51:47;1.10;;;0.40;;
1977;SDS011;989;53.016;8.346;2023-02-18T15:54:16;1.10;;;0.40;;
1977;SDS011;989;53.016;8.346;2023-02-18T15:56:45;1.10;;;0.40;;
1977;SDS011;989;53.016;8.346;2023-02-18T15:59:25;1.10;;;0.40;;
1977;SDS011;989;53.016;8.346;2023-02-18T16:04:33;1.10;;;0.40;;
1977;SDS011;989;53.016;8.346;2023-02-18T16:07:50;1.00;;;0.40;;
1977;SDS011;989;53.016;8.346;2023-02-18T16:09:59;1.00;;;0.40;;
1977;SDS011;989;53.016;8.346;2023-02-18T16:12:38;1.10;;;0.40;;
1977;SDS011;989;53.016;8.346;2023-02-18T16:15:05;1.00;;;0.40;;
1977;SDS011;989;53.016;8.346;2023-02-18T16:17:33;1.00;;;0.40;;
1977;SDS011;989;53.016;8.346;2023-02-18T16:22:50;0.90;;;0.40;;
1977;SDS011;989;53.016;8.346;2023-02-18T16:25:25;0.97;;;0.40;;
1977;SDS011;989;53.016;8.346;2023-02-18T16:30:27;0.93;;;0.40;;
1977;SDS011;989;53.016;8.346;2023-02-18T16:32:54;1.00;;;0.40;;
1977;SDS011;989;53.016;8.346;2023-02-18T16:35:22;1.00;;;0.40;;
1977;SDS011;989;53.016;8.346;2023-02-18T16:37:49;1.00;;;0.40;;
1977;SDS011;989;53.016;8.346;2023-02-18T16:40:21;0.97;;;0.40;;
1977;SDS011;989;53.016;8.346;2023-02-18T16:42:56;0.90;;;0.40;;
1977;SDS011;989;53.016;8.346;2023-02-18T16:45:31;1.00;;;0.40;;
1977;SDS011;989;53.016;8.346;2023-02-18T16:47:58;1.00;;;0.40;;
1977;SDS011;989;53.016;8.346;2023-02-18T16:50:24;0.93;;;0.40;;
1977;SDS011;989;53.016;8.346;2023-02-18T16:52:53;1.00;;;0.40;;
1977;SDS011;989;53.016;8.346;2023-02-18T16:55:21;0.97;;;0.40;;
1977;SDS011;989;53.016;8.346;2023-02-18T16:57:49;1.00;;;0.40;;
1977;SDS011;989;53.016;8.346;2023-02-18T17:00:15;1.00;;;0.40;;
1977;SDS011;989;53.016;8.346;2023-02-18T17:02:47;0.93;;;0.40;;
1977;SDS011;989;53.016;8.346;2023-02-18T17:05:19;0.93;;;0.30;;
1977;SDS011;989;53.016;8.346;2023-02-18T17:07:46;0.97;;;0.40;;
1977;SDS011;989;53.016;8.346;2023-02-18T17:10:13;1.00;;;0.40;;
1977;SDS011;989;53.016;8.346;2023-02-18T17:12:39;1.00;;;0.40;;
1977;SDS011;989;53.016;8.346;2023-02-18T17:15:13;1.00;;;0.40;;
1977;SDS011;989;53.016;8.346;2023-02-18T17:17:54;1.00;;;0.40;;
1977;SDS011;989;53.016;8.346;2023-02-18T17:20:23;1.00;;;0.40;;
1977;SDS011;989;53.016;8.346;2023-02-18T17:22:50;1.00;;;0.40;;
1977;SDS011;989;53.016;8.346;2023-02-18T17:25:18;1.00;;;0.40;;
1977;SDS011;989;53.016;8.346;2023-02-18T17:27:55;1.00;;;0.40;;
1977;SDS011;989;53.016;8.346;2023-02-18T17:30:21;0.97;;;0.40;;
1977;SDS011;989;53.016;8.346;2023-02-18T17:32:48;1.00;;;0.40;;
1977;SDS011;989;53.016;8.346;2023-02-18T17:35:18;1.00;;;0.40;;
1977;SDS011;989;53.016;8.346;2023-02-18T17:37:47;0.93;;;0.40;;
1977;SDS011;989;53.016;8.346;2023-02-18T17:40:18;0.90;;;0.40;;
1977;SDS011;989;53.016;8.346;2023-02-18T17:42:45;0.90;;;0.40;;
1977;SDS011;989;53.016;8.346;2023-02-18T17:45:28;0.93;;;0.40;;
1977;SDS011;989;53.016;8.346;2023-02-18T17:47:58;0.93;;;0.40;;
1977;SDS011;989;53.016;8.346;2023-02-18T17:50:25;0.90;;;0.40;;
1977;SDS011;989;53.016;8.346;2023-02-18T17:52:53;0.90;;;0.40;;
1977;SDS011;989;53.016;8.346;2023-02-18T17:55:26;1.00;;;0.40;;